Adelaide, California
Current Conditions -  °F | °C
As of 2:53 PM on Tuesday 25 Nov 2014 (Local Time) from KPRB Reporting Station
Clear Clear  
Wind Chill: 22°   Ceiling: Unl
Heat Index: 22°   Visibility: 10mi
Dew Point:   Wind: 0mph
Humidity: 25%   Direction: NA
Pressure: 30.34"   Gusts: NA
Location:  35.6618°N, 120.707°W
Report Text: KPRB 252253Z AUTO 00000KT 10SM CLR 22/01 A3034 RMK AO2 SLP271 T02220011 TSNO
Loading
Personal Weather Stations






























Interactive Weather Map New forecast layout! Learn more

10-Day Weather Forecast

Advertisements
Track Severe Weather on mobile